MMGM/GYM METAR and TAF weather

Enter ICAO airport designator
Station Type Date Time Source
MMGM METAR 2018/12/15 19:41 UTC NOAA

MMGM 151941Z 00000KT 10SM OVC090 22/01 A2997 RMK 8/02/


Station Type Date Time Source
MMGM Decoded METAR 2018/12/15 19:41 UTC NOAA

Guaymas International Airport, Mexico (MMGM) 27-58N 110-56W
Dec 15, 2018 - 02:41 PM EST / 2018.12.15 1941 UTC
Wind: Calm:0
Visibility: 10 mile(s):0
Sky conditions: overcast
Temperature: 71 F (22 C)
Dew Point: 33 F (1 C)
Relative Humidity: 24%
Pressure (altimeter): 29.97 in. Hg (1014 hPa)
ob: MMGM 151941Z 00000KT 10SM OVC090 22/01 A2997 RMK 8/02/
cycle: 19

Station Type Date Time Source
MMGM TAF 2018/12/15 18:49 UTC NOAA

TAF MMGM 151645Z 1518/1618 24010KT P6SM OVC080
TEMPO 1522/1602 6SM RA BKN040
FM160600 00000KT P6SM RA BKN030 OVC080
FM161200 20010KT 5SM RA BKN030 OVC080


Example: see airport list